createdAt,value
2022-07-25T00:01:23.864Z,6.00
2022-07-25T00:03:26.681Z,6.60
2022-07-25T00:05:37.678Z,6.37
2022-07-25T00:07:40.753Z,6.80
2022-07-25T00:09:43.508Z,7.10
2022-07-25T00:11:48.872Z,6.40
2022-07-25T00:13:51.627Z,6.90
2022-07-25T00:15:54.423Z,7.13
2022-07-25T00:17:57.216Z,7.47
2022-07-25T00:20:00.305Z,6.60
2022-07-25T00:22:04.440Z,6.13
2022-07-25T00:24:08.019Z,6.77
2022-07-25T00:26:11.153Z,6.83
2022-07-25T00:28:13.971Z,6.83
2022-07-25T00:30:16.777Z,6.77
2022-07-25T00:32:19.561Z,6.93
2022-07-25T00:34:22.318Z,6.90
2022-07-25T00:36:25.060Z,6.77
2022-07-25T00:38:29.196Z,6.00
2022-07-25T00:40:31.937Z,6.13
2022-07-25T00:42:34.718Z,6.20
2022-07-25T00:44:37.470Z,5.80
2022-07-25T00:46:40.252Z,5.57
2022-07-25T00:48:44.350Z,6.13
2022-07-25T00:50:47.139Z,6.63
2022-07-25T00:52:49.878Z,5.40
2022-07-25T00:54:53.963Z,5.37
2022-07-25T00:56:56.694Z,6.13
2022-07-25T00:58:59.428Z,5.47
2022-07-25T01:01:02.300Z,5.20
2022-07-25T01:03:05.111Z,5.43
2022-07-25T01:05:09.045Z,5.10
2022-07-25T01:07:13.679Z,5.43
2022-07-25T01:09:16.455Z,5.53
2022-07-25T01:11:20.540Z,5.43
2022-07-25T01:13:23.262Z,4.90
2022-07-25T01:15:26.127Z,5.30
2022-07-25T01:17:28.841Z,5.37
2022-07-25T01:19:31.586Z,4.90
2022-07-25T01:21:38.795Z,5.00
2022-07-25T01:23:41.538Z,4.33
2022-07-25T01:25:44.311Z,4.50
2022-07-25T01:27:49.971Z,5.53
2022-07-25T01:29:55.640Z,4.80
2022-07-25T01:31:58.374Z,5.63
2022-07-25T01:34:01.434Z,5.33
2022-07-25T01:36:04.349Z,5.33
2022-07-25T01:38:08.423Z,4.63
2022-07-25T01:40:11.680Z,4.80
2022-07-25T01:42:14.423Z,4.90
2022-07-25T01:44:17.617Z,4.73
2022-07-25T01:46:20.400Z,5.20
2022-07-25T01:48:23.266Z,4.67
2022-07-25T01:50:26.265Z,4.93
2022-07-25T01:52:28.993Z,5.20
2022-07-25T01:54:33.164Z,4.67
2022-07-25T01:56:35.890Z,5.17
2022-07-25T01:58:38.763Z,4.27
2022-07-25T02:00:41.616Z,5.07
2022-07-25T02:02:45.075Z,5.20
2022-07-25T02:04:47.880Z,5.33
2022-07-25T02:06:52.207Z,5.23
2022-07-25T02:08:54.958Z,4.90
2022-07-25T02:10:59.298Z,4.70
2022-07-25T02:13:02.174Z,5.53
2022-07-25T02:15:05.573Z,5.07
2022-07-25T02:17:08.412Z,5.00
2022-07-25T02:19:11.298Z,4.93
2022-07-25T02:21:14.819Z,5.53
2022-07-25T02:23:17.590Z,4.77
2022-07-25T02:25:20.485Z,5.23
2022-07-25T02:27:24.567Z,5.77
2022-07-25T02:29:27.317Z,5.00
2022-07-25T02:31:30.104Z,5.97
2022-07-25T02:33:32.842Z,4.90
2022-07-25T02:35:35.590Z,4.90
2022-07-25T02:37:38.323Z,5.03
2022-07-25T02:39:41.073Z,4.90
2022-07-25T02:41:43.985Z,5.27
2022-07-25T02:43:48.062Z,5.10
2022-07-25T02:45:50.851Z,5.07
2022-07-25T02:47:53.682Z,5.33
2022-07-25T02:49:56.451Z,6.10
2022-07-25T02:51:59.190Z,4.70
2022-07-25T02:54:02.114Z,5.30
2022-07-25T02:56:05.251Z,5.37
2022-07-25T02:58:08.672Z,5.30
2022-07-25T03:00:14.366Z,5.10
2022-07-25T03:02:17.102Z,5.10
2022-07-25T03:04:19.961Z,5.00
2022-07-25T03:06:22.797Z,5.20
2022-07-25T03:08:25.539Z,5.10
2022-07-25T03:10:28.403Z,5.60
2022-07-25T03:12:32.831Z,4.90
2022-07-25T03:14:35.569Z,5.13
2022-07-25T03:16:39.703Z,5.07
2022-07-25T03:18:42.467Z,5.43
2022-07-25T03:20:45.221Z,6.13
2022-07-25T03:22:47.947Z,5.53
2022-07-25T03:24:53.347Z,5.30
2022-07-25T03:26:56.077Z,5.03
2022-07-25T03:28:58.802Z,5.50
2022-07-25T03:31:01.539Z,5.43
2022-07-25T03:33:05.592Z,5.40
2022-07-25T03:35:09.072Z,5.10
2022-07-25T03:37:11.794Z,5.50
2022-07-25T03:39:14.540Z,5.67
2022-07-25T03:41:17.284Z,5.73
2022-07-25T03:43:20.014Z,5.30
2022-07-25T03:45:22.803Z,5.47
2022-07-25T03:47:25.523Z,5.43
2022-07-25T03:49:29.579Z,5.00
2022-07-25T03:51:32.403Z,6.10
2022-07-25T03:53:55.111Z,5.73
2022-07-25T03:55:57.851Z,5.63
2022-07-25T03:58:00.574Z,5.37
2022-07-25T04:00:03.487Z,5.33
2022-07-25T04:02:06.303Z,5.73
2022-07-25T04:04:10.031Z,5.03
2022-07-25T04:06:14.221Z,5.70
2022-07-25T04:08:16.946Z,5.67
2022-07-25T04:10:19.688Z,5.53
2022-07-25T04:12:22.406Z,5.00
2022-07-25T04:14:25.124Z,4.60
2022-07-25T04:16:28.133Z,5.30
2022-07-25T04:18:30.940Z,5.50
2022-07-25T04:20:37.462Z,5.57
2022-07-25T04:22:46.318Z,4.80
2022-07-25T04:24:49.626Z,5.40
2022-07-25T04:26:52.406Z,5.40
2022-07-25T04:28:56.943Z,6.60
2022-07-25T04:30:59.709Z,5.53
2022-07-25T04:33:02.440Z,5.13
2022-07-25T04:35:05.790Z,4.63
2022-07-25T04:37:08.546Z,4.80
2022-07-25T04:39:12.606Z,5.73
2022-07-25T04:41:15.342Z,5.50
2022-07-25T04:43:18.062Z,5.00
2022-07-25T04:45:20.841Z,5.00
2022-07-25T04:47:23.595Z,5.07
2022-07-25T04:49:26.323Z,4.80
2022-07-25T04:51:29.306Z,5.00
2022-07-25T04:53:32.095Z,4.40
2022-07-25T04:55:36.310Z,7.30
2022-07-25T04:57:39.032Z,4.90
2022-07-25T04:59:41.756Z,5.70
2022-07-25T05:01:44.554Z,5.07
2022-07-25T05:03:50.182Z,5.43
2022-07-25T05:05:53.548Z,4.80
2022-07-25T05:07:57.323Z,4.90
2022-07-25T05:10:00.236Z,4.77
2022-07-25T05:12:04.665Z,5.27
2022-07-25T05:14:07.775Z,5.50
2022-07-25T05:16:10.833Z,5.10
2022-07-25T05:18:13.584Z,5.50
2022-07-25T05:20:16.350Z,6.13
2022-07-25T05:22:19.424Z,5.50
2022-07-25T05:24:22.962Z,7.60
2022-07-25T05:26:25.696Z,5.30
2022-07-25T05:28:29.760Z,5.50
2022-07-25T05:30:35.366Z,8.67
2022-07-25T05:32:42.299Z,7.23
2022-07-25T05:34:45.590Z,9.07
2022-07-25T05:36:48.366Z,5.60
2022-07-25T05:38:51.161Z,5.00
2022-07-25T05:40:53.946Z,7.33
2022-07-25T05:43:00.946Z,6.20
2022-07-25T05:45:08.195Z,5.90
2022-07-25T05:47:11.844Z,4.90
2022-07-25T05:49:15.924Z,5.90
2022-07-25T05:51:18.770Z,5.30
2022-07-25T05:53:21.846Z,4.90
2022-07-25T05:55:24.571Z,5.97
2022-07-25T05:57:27.552Z,6.13
2022-07-25T05:59:30.266Z,5.33
2022-07-25T06:01:34.423Z,5.10
2022-07-25T06:03:37.171Z,5.07
2022-07-25T06:05:39.921Z,5.13
2022-07-25T06:07:42.665Z,5.60
2022-07-25T06:09:45.420Z,6.30
2022-07-25T06:11:54.476Z,5.77
2022-07-25T06:14:02.886Z,6.40
2022-07-25T06:16:06.471Z,5.83
2022-07-25T06:18:10.578Z,6.30
2022-07-25T06:20:13.412Z,6.97
2022-07-25T06:22:16.159Z,6.30
2022-07-25T06:24:18.894Z,6.47
2022-07-25T06:26:21.781Z,6.00
2022-07-25T06:28:24.501Z,6.80
2022-07-25T06:30:27.303Z,6.40
2022-07-25T06:32:30.209Z,6.80
2022-07-25T06:34:34.266Z,6.47
2022-07-25T06:36:36.986Z,6.53
2022-07-25T06:38:39.723Z,6.30
2022-07-25T06:40:42.448Z,6.50
2022-07-25T06:42:46.865Z,6.60
2022-07-25T06:44:49.606Z,6.60
2022-07-25T06:46:52.383Z,7.50
2022-07-25T06:48:55.204Z,6.50
2022-07-25T06:50:59.283Z,6.63
2022-07-25T06:53:02.070Z,6.60
2022-07-25T06:55:05.426Z,7.10
2022-07-25T06:57:08.949Z,7.40
2022-07-25T06:59:11.709Z,6.23
2022-07-25T07:01:14.506Z,6.30
2022-07-25T07:03:17.328Z,6.40
2022-07-25T07:05:20.208Z,6.47
2022-07-25T07:07:24.707Z,7.40
2022-07-25T07:09:27.456Z,8.00
2022-07-25T07:11:30.179Z,7.50
2022-07-25T07:13:32.956Z,6.63
2022-07-25T07:15:35.723Z,7.10
2022-07-25T07:17:38.451Z,6.80
2022-07-25T07:19:44.515Z,6.40
2022-07-25T07:21:47.381Z,7.10
2022-07-25T07:23:53.307Z,6.87
2022-07-25T07:25:56.690Z,6.50
2022-07-25T07:27:59.474Z,6.53
2022-07-25T07:30:02.196Z,6.50
2022-07-25T07:32:06.551Z,6.07
2022-07-25T07:34:09.357Z,6.47
2022-07-25T07:36:17.443Z,6.63
2022-07-25T07:38:20.191Z,7.00
2022-07-25T07:40:25.726Z,7.17
2022-07-25T07:42:28.514Z,7.33
2022-07-25T07:44:31.251Z,7.07
2022-07-25T07:46:34.126Z,6.50
2022-07-25T07:48:37.060Z,6.40
2022-07-25T07:50:40.204Z,6.10
2022-07-25T07:52:43.001Z,7.10
2022-07-25T07:55:03.345Z,7.00
2022-07-25T07:57:08.160Z,6.53
2022-07-25T07:59:11.137Z,7.33
2022-07-25T08:01:13.881Z,7.30
2022-07-25T08:03:18.731Z,6.90
2022-07-25T08:05:23.496Z,7.37
2022-07-25T08:07:26.237Z,7.00
2022-07-25T08:09:29.467Z,7.40
2022-07-25T08:11:32.201Z,8.40
2022-07-25T08:13:38.021Z,7.20
2022-07-25T08:15:40.891Z,7.40
2022-07-25T08:17:43.707Z,7.27
2022-07-25T08:19:46.446Z,7.20
2022-07-25T08:21:49.188Z,6.70
2022-07-25T08:23:51.915Z,7.43
2022-07-25T08:25:54.906Z,6.87
2022-07-25T08:27:57.737Z,6.90
2022-07-25T08:30:01.830Z,7.20
2022-07-25T08:32:04.923Z,6.83
2022-07-25T08:34:07.971Z,6.70
2022-07-25T08:36:11.785Z,7.43
2022-07-25T08:38:14.543Z,7.20
2022-07-25T08:40:18.174Z,6.73
2022-07-25T08:42:21.191Z,7.17
2022-07-25T08:44:24.262Z,7.00
2022-07-25T08:46:30.145Z,7.40
2022-07-25T08:48:33.223Z,7.27
2022-07-25T08:50:36.172Z,7.40
2022-07-25T08:52:39.232Z,7.30
2022-07-25T08:54:42.002Z,7.43
2022-07-25T08:56:44.735Z,6.90
2022-07-25T08:58:47.477Z,6.67
2022-07-25T09:00:50.222Z,7.50
2022-07-25T09:02:54.614Z,7.10
2022-07-25T09:04:58.478Z,7.73
2022-07-25T09:07:05.003Z,7.63
2022-07-25T09:09:10.727Z,7.73
2022-07-25T09:11:13.480Z,7.80
2022-07-25T09:13:16.292Z,7.80
2022-07-25T09:15:24.866Z,7.43
2022-07-25T09:17:28.796Z,7.33
2022-07-25T09:19:33.763Z,7.50
2022-07-25T09:21:36.545Z,8.07
2022-07-25T09:23:39.887Z,7.40
2022-07-25T09:25:42.801Z,7.60
2022-07-25T09:27:45.532Z,7.37
2022-07-25T09:29:48.259Z,7.50
2022-07-25T09:31:51.246Z,8.60
2022-07-25T09:33:56.286Z,7.30
2022-07-25T09:36:00.365Z,7.63
2022-07-25T09:38:10.867Z,6.90
2022-07-25T09:40:14.707Z,6.83
2022-07-25T09:42:18.656Z,6.40
2022-07-25T09:44:23.157Z,6.70
2022-07-25T09:46:30.543Z,6.17
2022-07-25T09:48:33.558Z,6.23
2022-07-25T09:50:36.326Z,6.87
2022-07-25T09:52:40.412Z,7.20
2022-07-25T09:54:43.180Z,7.50
2022-07-25T09:56:45.914Z,6.23
2022-07-25T09:58:48.906Z,6.27
2022-07-25T10:00:51.828Z,6.40
2022-07-25T10:03:02.574Z,6.00
2022-07-25T10:05:11.111Z,6.60
2022-07-25T10:07:15.102Z,7.30
2022-07-25T10:09:19.162Z,6.33
2022-07-25T10:11:22.895Z,7.20
2022-07-25T10:13:32.311Z,7.03
2022-07-25T10:15:48.750Z,6.80
2022-07-25T10:17:52.161Z,7.37
2022-07-25T10:19:58.675Z,7.50
2022-07-25T10:22:02.854Z,6.33
2022-07-25T10:24:07.361Z,6.20
2022-07-25T10:26:13.479Z,5.50
2022-07-25T10:28:19.047Z,6.70
2022-07-25T10:30:23.245Z,6.90
2022-07-25T10:32:27.030Z,7.37
2022-07-25T10:34:30.561Z,6.30
2022-07-25T10:36:43.076Z,6.20
2022-07-25T10:38:46.551Z,6.43
2022-07-25T10:40:49.331Z,7.13
2022-07-25T10:42:57.200Z,6.20
2022-07-25T10:45:05.432Z,6.13
2022-07-25T10:47:10.238Z,6.97
2022-07-25T10:49:18.939Z,8.63
2022-07-25T10:51:27.538Z,7.17
2022-07-25T10:53:35.026Z,6.00
2022-07-25T10:55:38.117Z,6.27
2022-07-25T10:57:55.092Z,6.70
2022-07-25T11:00:08.593Z,6.40
2022-07-25T11:02:16.321Z,9.87
2022-07-25T11:04:19.194Z,7.17
2022-07-25T11:06:31.343Z,8.07
2022-07-25T11:08:34.333Z,6.87
2022-07-25T11:10:37.148Z,6.80
2022-07-25T11:12:39.918Z,6.33
2022-07-25T11:14:43.243Z,6.77
2022-07-25T11:16:48.710Z,6.93
2022-07-25T11:18:51.568Z,8.03
2022-07-25T11:21:04.340Z,7.97
2022-07-25T11:23:09.148Z,7.57
2022-07-25T11:25:12.780Z,7.37
2022-07-25T11:27:21.911Z,7.17
2022-07-25T11:29:27.032Z,7.97
2022-07-25T11:31:29.859Z,7.30
2022-07-25T11:33:38.429Z,7.87
2022-07-25T11:35:41.799Z,8.07
2022-07-25T11:37:48.941Z,10.10
2022-07-25T11:39:52.968Z,7.90
2022-07-25T11:42:02.835Z,8.07
2022-07-25T11:44:06.478Z,7.80
2022-07-25T11:46:09.428Z,7.60
2022-07-25T11:48:13.436Z,8.43
2022-07-25T11:50:17.572Z,8.33
2022-07-25T11:52:21.958Z,7.60
2022-07-25T11:54:24.695Z,7.00
2022-07-25T11:56:43.730Z,8.03
2022-07-25T11:58:57.409Z,10.17
2022-07-25T12:01:00.141Z,9.40
2022-07-25T12:03:07.670Z,7.73
2022-07-25T12:05:11.568Z,7.13
2022-07-25T12:07:16.089Z,7.30
2022-07-25T12:09:19.865Z,8.10
2022-07-25T12:11:24.465Z,7.40
2022-07-25T12:13:28.127Z,7.40
2022-07-25T12:15:31.771Z,8.77
2022-07-25T12:17:34.526Z,8.40
2022-07-25T12:19:37.237Z,10.97
2022-07-25T12:21:39.978Z,7.97
2022-07-25T12:23:44.065Z,7.30
2022-07-25T12:25:47.222Z,7.30
2022-07-25T12:27:50.089Z,8.10
2022-07-25T12:29:52.847Z,8.93
2022-07-25T12:31:55.590Z,7.90
2022-07-25T12:33:59.257Z,7.73
2022-07-25T12:36:06.612Z,7.53
2022-07-25T12:38:11.237Z,8.20
2022-07-25T12:40:15.443Z,7.93
2022-07-25T12:42:18.215Z,8.13
2022-07-25T12:44:20.943Z,7.67
2022-07-25T12:46:23.707Z,8.53
2022-07-25T12:48:26.563Z,7.70
2022-07-25T12:50:29.393Z,9.77
2022-07-25T12:52:32.171Z,8.00
2022-07-25T12:54:34.915Z,7.43
2022-07-25T12:56:38.967Z,7.60
2022-07-25T12:58:41.716Z,7.97
2022-07-25T13:00:44.590Z,8.40
2022-07-25T13:02:47.667Z,8.03
2022-07-25T13:04:50.483Z,8.00
2022-07-25T13:06:53.227Z,7.60
2022-07-25T13:08:56.302Z,7.47
2022-07-25T13:10:59.031Z,8.90
2022-07-25T13:13:03.702Z,8.00
2022-07-25T13:15:07.443Z,7.73
2022-07-25T13:17:10.255Z,7.60
2022-07-25T13:19:13.046Z,8.20
2022-07-25T13:21:15.794Z,7.40
2022-07-25T13:23:20.821Z,7.50
2022-07-25T13:25:23.709Z,7.27
2022-07-25T13:27:26.441Z,7.23
2022-07-25T13:29:30.514Z,7.90
2022-07-25T13:31:33.391Z,8.47
2022-07-25T13:33:37.222Z,7.60
2022-07-25T13:35:40.215Z,6.90
2022-07-25T13:37:42.996Z,6.80
2022-07-25T13:39:45.757Z,8.13
2022-07-25T13:41:48.689Z,7.10
2022-07-25T13:43:51.457Z,8.30
2022-07-25T13:45:55.586Z,7.47
2022-07-25T13:48:26.756Z,7.53
2022-07-25T13:50:21.274Z,7.40
2022-07-25T13:52:24.006Z,7.60
2022-07-25T13:54:26.767Z,7.47
2022-07-25T13:56:29.520Z,7.20
2022-07-25T13:58:32.568Z,7.63
2022-07-25T14:00:35.339Z,7.30
2022-07-25T14:02:39.471Z,8.20
2022-07-25T14:04:42.286Z,7.60
2022-07-25T14:06:45.038Z,6.73
2022-07-25T14:08:47.866Z,7.60
2022-07-25T14:10:50.612Z,7.10
2022-07-25T14:12:53.390Z,7.83
2022-07-25T14:14:56.347Z,8.50
2022-07-25T14:16:59.230Z,8.00
2022-07-25T14:19:03.520Z,7.70
2022-07-25T14:21:06.733Z,6.97
2022-07-25T14:23:09.612Z,7.50
2022-07-25T14:25:12.586Z,6.67
2022-07-25T14:27:15.337Z,8.10
2022-07-25T14:29:18.222Z,7.03
2022-07-25T14:31:21.338Z,7.50
2022-07-25T14:33:24.183Z,8.00
2022-07-25T14:35:32.320Z,8.00
2022-07-25T14:37:35.667Z,7.33
2022-07-25T14:39:38.432Z,7.07
2022-07-25T14:41:42.590Z,7.37
2022-07-25T14:43:45.647Z,7.07
2022-07-25T14:45:48.406Z,7.27
2022-07-25T14:47:51.198Z,6.10
2022-07-25T14:49:53.958Z,7.40
2022-07-25T14:51:58.039Z,7.40
2022-07-25T14:54:00.785Z,7.43
2022-07-25T14:56:03.701Z,6.40
2022-07-25T14:58:06.456Z,6.47
2022-07-25T15:00:10.930Z,6.40
2022-07-25T15:02:13.948Z,5.83
2022-07-25T15:04:19.720Z,5.77
2022-07-25T15:06:27.387Z,5.93
2022-07-25T15:08:33.187Z,6.27
2022-07-25T15:10:35.965Z,6.53
2022-07-25T15:12:38.715Z,5.63
2022-07-25T15:14:41.629Z,6.13
2022-07-25T15:16:44.508Z,7.20
2022-07-25T15:19:14.567Z,8.00
2022-07-25T15:21:10.070Z,8.50
2022-07-25T15:23:12.808Z,8.63
2022-07-25T15:25:58.059Z,7.83
2022-07-25T15:27:39.974Z,9.70
2022-07-25T15:29:42.721Z,9.83
2022-07-25T15:31:45.525Z,10.70
2022-07-25T15:33:48.288Z,10.03
2022-07-25T15:35:51.059Z,9.80
2022-07-25T15:37:53.802Z,10.53
2022-07-25T15:39:56.576Z,9.70
2022-07-25T15:42:00.668Z,9.70
2022-07-25T15:44:03.424Z,9.20
2022-07-25T15:46:06.507Z,10.30
2022-07-25T15:48:10.216Z,10.50
2022-07-25T15:50:13.048Z,9.47
2022-07-25T15:52:15.805Z,9.37
2022-07-25T15:54:18.551Z,9.07
2022-07-25T15:56:21.309Z,9.63
2022-07-25T15:58:26.784Z,9.77
2022-07-25T16:00:29.999Z,7.97
2022-07-25T16:02:32.854Z,8.10
2022-07-25T16:04:35.608Z,6.40
2022-07-25T16:06:38.678Z,7.17
2022-07-25T16:08:41.770Z,6.50
2022-07-25T16:10:44.526Z,6.53
2022-07-25T16:12:47.255Z,5.70
2022-07-25T16:14:51.419Z,6.70
2022-07-25T16:16:56.899Z,6.83
2022-07-25T16:18:59.634Z,6.20
2022-07-25T16:21:03.133Z,5.60
2022-07-25T16:23:05.862Z,7.27
2022-07-25T16:25:09.389Z,5.60
2022-07-25T16:27:12.138Z,6.10
2022-07-25T16:29:16.317Z,5.33
2022-07-25T16:31:20.491Z,6.13
2022-07-25T16:33:23.278Z,5.63
2022-07-25T16:35:26.238Z,6.20
2022-07-25T16:37:28.984Z,5.50
2022-07-25T16:39:31.789Z,5.50
2022-07-25T16:41:34.607Z,5.37
2022-07-25T16:43:37.366Z,5.30
2022-07-25T16:45:42.129Z,5.93
2022-07-25T16:47:46.305Z,5.13
2022-07-25T16:49:49.049Z,5.40
2022-07-25T16:51:51.817Z,5.00
2022-07-25T16:53:54.655Z,5.70
2022-07-25T16:55:57.468Z,4.63
2022-07-25T16:58:00.325Z,5.50
2022-07-25T17:00:04.465Z,5.30
2022-07-25T17:02:07.327Z,5.80
2022-07-25T17:04:11.438Z,5.00
2022-07-25T17:06:14.871Z,4.80
2022-07-25T17:08:17.855Z,4.77
2022-07-25T17:10:20.927Z,4.23
2022-07-25T17:12:24.084Z,5.17
2022-07-25T17:14:30.216Z,5.17
2022-07-25T17:16:33.325Z,5.03
2022-07-25T17:18:36.645Z,4.70
2022-07-25T17:20:40.750Z,4.93
2022-07-25T17:22:43.489Z,4.87
2022-07-25T17:24:46.222Z,3.80
2022-07-25T17:26:48.978Z,4.20
2022-07-25T17:28:52.008Z,3.60
2022-07-25T17:30:54.809Z,3.40
2022-07-25T17:32:58.555Z,3.30
2022-07-25T17:35:01.290Z,3.03
2022-07-25T17:37:06.234Z,3.43
2022-07-25T17:39:09.426Z,2.40
2022-07-25T17:41:12.374Z,3.07
2022-07-25T17:43:15.110Z,3.90
2022-07-25T17:45:17.899Z,3.00
2022-07-25T17:47:21.034Z,3.43
2022-07-25T17:49:25.975Z,3.97
2022-07-25T17:51:28.811Z,3.07
2022-07-25T17:53:32.965Z,3.10
2022-07-25T17:55:38.889Z,3.73
2022-07-25T17:57:42.860Z,3.73
2022-07-25T17:59:45.605Z,3.00
2022-07-25T18:01:48.422Z,3.23
2022-07-25T18:03:51.194Z,3.00
2022-07-25T18:05:53.957Z,3.70
2022-07-25T18:07:56.698Z,3.40
2022-07-25T18:10:01.947Z,3.30
2022-07-25T18:12:04.998Z,3.53
2022-07-25T18:14:07.889Z,3.57
2022-07-25T18:16:10.949Z,3.57
2022-07-25T18:18:19.892Z,3.23
2022-07-25T18:20:23.222Z,3.30
2022-07-25T18:22:25.976Z,3.30
2022-07-25T18:24:29.746Z,3.43
2022-07-25T18:26:34.266Z,3.43
2022-07-25T18:28:37.379Z,4.50
2022-07-25T18:30:40.189Z,3.20
2022-07-25T18:32:43.085Z,3.67
2022-07-25T18:34:45.829Z,4.00
2022-07-25T18:36:48.584Z,3.40
2022-07-25T18:38:53.718Z,3.23
2022-07-25T18:41:18.908Z,3.60
2022-07-25T18:43:20.529Z,3.90
2022-07-25T18:45:23.382Z,3.40
2022-07-25T18:47:29.936Z,3.60
2022-07-25T18:49:34.970Z,3.73
2022-07-25T18:51:37.721Z,3.70
2022-07-25T18:53:42.822Z,3.83
2022-07-25T18:55:48.843Z,3.70
2022-07-25T18:57:51.586Z,3.53
2022-07-25T18:59:58.328Z,3.80
2022-07-25T19:02:05.361Z,4.20
2022-07-25T19:04:08.430Z,3.83
2022-07-25T19:06:11.706Z,3.57
2022-07-25T19:08:14.443Z,4.03
2022-07-25T19:10:17.266Z,4.10
2022-07-25T19:12:20.028Z,4.23
2022-07-25T19:14:23.993Z,3.97
2022-07-25T19:16:28.195Z,3.70
2022-07-25T19:18:30.979Z,4.10
2022-07-25T19:20:34.126Z,3.83
2022-07-25T19:22:36.907Z,3.87
2022-07-25T19:24:39.680Z,3.90
2022-07-25T19:26:42.698Z,4.17
2022-07-25T19:28:45.424Z,4.47
2022-07-25T19:30:49.940Z,3.80
2022-07-25T19:32:54.118Z,4.07
2022-07-25T19:34:56.850Z,4.00
2022-07-25T19:37:00.039Z,4.00
2022-07-25T19:39:03.313Z,3.90
2022-07-25T19:41:06.270Z,4.40
2022-07-25T19:43:09.010Z,4.00
2022-07-25T19:45:12.227Z,4.20
2022-07-25T19:47:14.990Z,4.30
2022-07-25T19:49:19.087Z,3.83
2022-07-25T19:51:21.924Z,4.27
2022-07-25T19:53:28.602Z,4.07
2022-07-25T19:55:31.596Z,3.90
2022-07-25T19:57:34.369Z,4.10
2022-07-25T19:59:37.151Z,3.70
2022-07-25T20:01:39.944Z,4.60
2022-07-25T20:03:42.765Z,4.30
2022-07-25T20:05:46.837Z,4.13
2022-07-25T20:07:49.610Z,4.37
2022-07-25T20:09:52.368Z,4.40
2022-07-25T20:11:56.108Z,3.70
2022-07-25T20:13:58.840Z,4.60
2022-07-25T20:16:02.150Z,4.60
2022-07-25T20:18:04.919Z,4.40
2022-07-25T20:20:08.643Z,4.77
2022-07-25T20:22:12.743Z,5.00
2022-07-25T20:24:20.918Z,4.37
2022-07-25T20:26:24.183Z,4.30
2022-07-25T20:28:26.928Z,4.10
2022-07-25T20:30:34.590Z,4.13
2022-07-25T20:32:37.777Z,4.30
2022-07-25T20:34:40.505Z,4.33
2022-07-25T20:36:43.280Z,4.00
2022-07-25T20:38:47.345Z,4.20
2022-07-25T20:40:51.230Z,4.43
2022-07-25T20:42:53.988Z,4.30
2022-07-25T20:44:57.323Z,4.33
2022-07-25T20:47:00.090Z,4.33
2022-07-25T20:49:02.873Z,4.17
2022-07-25T20:51:05.814Z,4.10
2022-07-25T20:53:08.903Z,3.70
2022-07-25T20:55:12.969Z,4.10
2022-07-25T20:57:15.724Z,3.67
2022-07-25T20:59:18.466Z,3.90
2022-07-25T21:01:21.307Z,3.90
2022-07-25T21:03:24.118Z,3.90
2022-07-25T21:05:26.982Z,4.27
2022-07-25T21:07:29.731Z,4.33
2022-07-25T21:09:32.919Z,4.00
2022-07-25T21:11:37.287Z,4.23
2022-07-25T21:13:40.023Z,3.93
2022-07-25T21:15:43.040Z,4.10
2022-07-25T21:17:45.801Z,3.77
2022-07-25T21:19:48.604Z,3.00
2022-07-25T21:21:51.419Z,3.43
2022-07-25T21:23:54.176Z,3.03
2022-07-25T21:25:56.951Z,3.30
2022-07-25T21:28:01.050Z,3.50
2022-07-25T21:30:04.596Z,2.90
2022-07-25T21:32:07.938Z,3.50
2022-07-25T21:34:10.720Z,3.40
2022-07-25T21:36:13.441Z,2.77
2022-07-25T21:38:26.018Z,3.37
2022-07-25T21:40:30.437Z,2.90
2022-07-25T21:42:33.202Z,2.70
2022-07-25T21:44:37.301Z,3.03
2022-07-25T21:46:40.040Z,2.60
2022-07-25T21:49:00.494Z,2.87
2022-07-25T21:51:03.254Z,2.83
2022-07-25T21:53:11.933Z,2.60
2022-07-25T21:55:14.665Z,2.90
2022-07-25T21:57:17.433Z,3.00
2022-07-25T21:59:20.171Z,2.90
2022-07-25T22:01:24.323Z,3.30
2022-07-25T22:03:27.136Z,2.93
2022-07-25T22:05:29.967Z,2.63
2022-07-25T22:07:32.720Z,2.70
2022-07-25T22:09:35.460Z,3.00
2022-07-25T22:11:43.007Z,2.57
2022-07-25T22:13:49.138Z,2.90
2022-07-25T22:15:51.905Z,2.53
2022-07-25T22:17:56.044Z,3.03
2022-07-25T22:19:58.778Z,3.10
2022-07-25T22:22:01.540Z,2.80
2022-07-25T22:24:04.442Z,2.87
2022-07-25T22:26:07.210Z,3.00
2022-07-25T22:28:14.258Z,3.37
2022-07-25T22:30:19.458Z,2.73
2022-07-25T22:32:22.516Z,3.03
2022-07-25T22:34:26.615Z,3.07
2022-07-25T22:36:29.356Z,2.90
2022-07-25T22:38:32.116Z,3.37
2022-07-25T22:40:34.863Z,2.77
2022-07-25T22:42:37.629Z,2.90
2022-07-25T22:44:40.362Z,2.77
2022-07-25T22:46:43.438Z,2.40
2022-07-25T22:48:46.219Z,2.80
2022-07-25T22:50:50.352Z,2.70
2022-07-25T22:52:53.102Z,2.60
2022-07-25T22:54:55.830Z,2.67
2022-07-25T22:56:58.554Z,2.30
2022-07-25T22:59:01.336Z,2.77
2022-07-25T23:01:04.066Z,3.20
2022-07-25T23:03:07.001Z,3.10
2022-07-25T23:05:10.507Z,2.50
2022-07-25T23:07:14.619Z,3.03
2022-07-25T23:09:17.373Z,2.27
2022-07-25T23:11:20.110Z,2.77
2022-07-25T23:13:22.863Z,3.23
2022-07-25T23:15:26.723Z,2.70
2022-07-25T23:17:48.331Z,2.73
2022-07-25T23:19:51.989Z,2.20
2022-07-25T23:21:54.735Z,2.50
2022-07-25T23:23:59.986Z,2.87
2022-07-25T23:26:02.773Z,3.27
2022-07-25T23:28:05.914Z,2.90
2022-07-25T23:30:09.640Z,2.83
2022-07-25T23:32:12.405Z,2.87
2022-07-25T23:34:15.135Z,2.70
2022-07-25T23:36:17.887Z,2.77
2022-07-25T23:38:20.625Z,3.03
2022-07-25T23:40:24.710Z,2.80
2022-07-25T23:42:27.805Z,3.27
2022-07-25T23:44:30.938Z,2.67
2022-07-25T23:46:33.772Z,2.67
2022-07-25T23:48:38.171Z,2.60
2022-07-25T23:50:40.962Z,2.50
2022-07-25T23:52:43.750Z,3.10
2022-07-25T23:54:46.519Z,3.03
2022-07-25T23:56:51.567Z,2.60
2022-07-25T23:58:54.298Z,2.70
